Time;durP1;ratioP1;P1;durP2;ratioP2;P2;SDS_P1;SDS_P2;PMS_P1;PMS_P2;Temp;Humidity;BMP_temperature;BMP_pressure;BME280_temperature;BME280_humidity;BME280_pressure;Samples;Min_cycle;Max_cycle;Signal;HPM_P1;HPM_P2
2021/09/13 00:02:11;;;;;;;1.23;1.20;;;24.50;59.90;;;;;;5090074;28;20281;-66
2021/09/13 00:04:40;;;;;;;1.30;1.20;;;24.50;59.90;;;;;;5110261;28;20642;-66
2021/09/13 00:07:15;;;;;;;1.23;1.13;;;24.50;59.90;;;;;;5088947;28;20593;-66
2021/09/13 00:09:47;;;;;;;1.20;1.10;;;24.50;59.90;;;;;;5109451;28;20617;-66
2021/09/13 00:12:19;;;;;;;1.70;1.20;;;24.50;59.90;;;;;;5106231;28;20204;-66
2021/09/13 00:14:48;;;;;;;1.07;0.97;;;24.50;59.90;;;;;;5111221;28;20219;-66
2021/09/13 00:17:15;;;;;;;4.10;1.10;;;24.50;59.90;;;;;;5109271;28;20227;-66
2021/09/13 00:19:47;;;;;;;1.77;1.00;;;24.50;59.90;;;;;;5092635;28;20405;-66
2021/09/13 00:22:15;;;;;;;1.27;0.90;;;24.50;59.90;;;;;;5107368;28;20192;-66
2021/09/13 00:24:44;;;;;;;1.47;1.37;;;24.40;59.90;;;;;;5076977;28;20197;-66
2021/09/13 00:27:15;;;;;;;0.97;0.97;;;24.40;59.80;;;;;;5108104;28;20612;-66
2021/09/13 00:29:46;;;;;;;1.33;1.20;;;24.40;59.80;;;;;;5094596;28;20200;-66
2021/09/13 00:32:16;;;;;;;1.00;1.00;;;24.40;59.80;;;;;;5107334;28;20306;-66
2021/09/13 00:34:48;;;;;;;1.30;1.20;;;24.40;59.80;;;;;;5093067;28;20196;-67
2021/09/13 00:37:17;;;;;;;1.10;1.10;;;24.40;59.80;;;;;;5109570;28;20640;-66
2021/09/13 00:39:58;;;;;;;1.10;1.00;;;24.40;59.80;;;;;;5095181;28;20697;-66
2021/09/13 00:42:31;;;;;;;1.27;1.17;;;24.40;59.80;;;;;;5098220;28;20197;-66
2021/09/13 00:45:03;;;;;;;1.30;1.10;;;24.40;59.80;;;;;;5088749;28;20243;-66
2021/09/13 00:47:34;;;;;;;1.30;1.20;;;24.40;59.80;;;;;;5080100;28;20205;-66
2021/09/13 00:50:05;;;;;;;2.30;1.30;;;24.40;59.80;;;;;;5106267;28;20197;-66
2021/09/13 00:52:34;;;;;;;2.03;1.00;;;24.40;59.80;;;;;;5107250;28;20184;-66
2021/09/13 00:55:08;;;;;;;1.40;1.30;;;24.40;59.80;;;;;;5092086;28;20220;-66
2021/09/13 00:57:42;;;;;;;1.23;1.00;;;24.40;59.80;;;;;;5078847;28;20208;-66
2021/09/13 01:00:14;;;;;;;1.93;1.00;;;24.30;59.70;;;;;;5090498;28;20273;-66
2021/09/13 01:02:44;;;;;;;1.20;1.10;;;24.40;59.80;;;;;;5111114;28;20199;-66
2021/09/13 01:05:16;;;;;;;1.50;1.00;;;24.30;59.70;;;;;;5082086;28;20589;-65
2021/09/13 01:07:45;;;;;;;1.13;0.90;;;24.30;59.70;;;;;;5099742;28;20231;-66
2021/09/13 01:10:17;;;;;;;1.23;1.10;;;24.30;59.70;;;;;;5100480;28;20200;-66
2021/09/13 01:12:48;;;;;;;1.20;1.10;;;24.30;59.70;;;;;;5101034;28;20215;-66
2021/09/13 01:15:20;;;;;;;1.20;1.10;;;24.30;59.70;;;;;;5097385;28;20279;-66
2021/09/13 01:17:54;;;;;;;1.07;0.90;;;24.30;59.70;;;;;;5087914;28;20195;-66
2021/09/13 01:20:25;;;;;;;1.57;1.00;;;24.30;59.70;;;;;;5087682;28;20208;-66
2021/09/13 01:23:01;;;;;;;1.70;1.20;;;24.30;59.70;;;;;;5106738;28;20200;-66
2021/09/13 01:25:34;;;;;;;0.93;0.93;;;24.30;59.70;;;;;;5103155;28;20558;-66
2021/09/13 01:28:03;;;;;;;1.27;1.00;;;24.30;59.70;;;;;;5088843;28;20829;-67
2021/09/13 01:30:34;;;;;;;1.10;1.00;;;24.30;59.60;;;;;;5101467;28;20229;-67
2021/09/13 01:33:07;;;;;;;1.23;1.00;;;24.20;59.60;;;;;;5104371;28;20736;-66
2021/09/13 01:35:37;;;;;;;1.07;0.80;;;24.30;59.70;;;;;;5084816;28;20609;-67
2021/09/13 01:38:04;;;;;;;1.13;0.93;;;24.30;59.60;;;;;;5085308;28;20196;-67
2021/09/13 01:40:36;;;;;;;1.33;1.00;;;24.20;59.60;;;;;;5096544;28;20223;-66
2021/09/13 01:43:08;;;;;;;1.20;1.10;;;24.20;59.50;;;;;;5074529;28;20197;-66
2021/09/13 01:45:42;;;;;;;0.97;0.90;;;24.20;59.60;;;;;;5101669;28;20246;-67
2021/09/13 01:48:14;;;;;;;0.80;0.80;;;24.20;59.60;;;;;;5106017;28;20214;-67
2021/09/13 01:50:47;;;;;;;1.70;1.33;;;24.20;59.60;;;;;;5108559;28;20204;-68
2021/09/13 01:53:16;;;;;;;1.10;1.00;;;24.20;59.60;;;;;;5068477;28;20245;-67
2021/09/13 01:55:48;;;;;;;1.00;0.90;;;24.20;59.50;;;;;;5076264;28;20228;-66
2021/09/13 01:58:21;;;;;;;1.13;1.00;;;24.20;59.50;;;;;;5092914;28;20200;-66
2021/09/13 02:00:51;;;;;;;1.10;1.00;;;24.20;59.50;;;;;;5090538;28;20236;-68
2021/09/13 02:03:21;;;;;;;1.10;1.00;;;24.20;59.60;;;;;;5090825;28;20275;-67
2021/09/13 02:05:57;;;;;;;0.83;0.83;;;24.10;60.10;;;;;;5102579;28;20197;-67
2021/09/13 02:08:25;;;;;;;0.80;0.80;;;24.10;59.50;;;;;;5095506;28;20222;-66
2021/09/13 02:10:57;;;;;;;1.17;0.80;;;24.10;59.50;;;;;;5100405;28;20579;-68
2021/09/13 02:13:51;;;;;;;0.90;0.90;;;24.20;59.50;;;;;;5098784;28;20207;-66
2021/09/13 02:16:22;;;;;;;0.90;0.90;;;24.20;59.50;;;;;;5100131;28;20192;-67
2021/09/13 02:18:52;;;;;;;1.07;1.00;;;24.20;59.50;;;;;;5107270;28;20223;-66
2021/09/13 02:21:25;;;;;;;0.97;0.97;;;24.10;59.50;;;;;;5109734;28;20297;-66
2021/09/13 02:23:54;;;;;;;1.20;1.10;;;24.10;59.40;;;;;;5108010;28;20192;-66
2021/09/13 02:26:26;;;;;;;0.70;0.70;;;24.10;59.40;;;;;;5095527;28;20191;-66
2021/09/13 02:28:58;;;;;;;2.73;1.00;;;24.10;59.40;;;;;;5060319;28;20204;-67
2021/09/13 02:31:29;;;;;;;1.03;0.90;;;24.10;59.40;;;;;;5091419;28;20665;-67
2021/09/13 02:33:57;;;;;;;0.90;0.90;;;24.10;59.40;;;;;;5107454;28;20235;-67
2021/09/13 02:36:30;;;;;;;1.23;1.00;;;24.10;59.40;;;;;;5109752;28;20214;-66
2021/09/13 02:38:58;;;;;;;1.33;1.00;;;24.10;59.40;;;;;;5083266;28;20295;-67
2021/09/13 02:41:33;;;;;;;0.90;0.90;;;24.10;59.40;;;;;;5095319;28;20621;-67
2021/09/13 02:44:04;;;;;;;0.90;0.90;;;24.00;59.40;;;;;;5098407;28;20201;-68
2021/09/13 02:46:32;;;;;;;1.33;0.93;;;24.00;59.30;;;;;;5059566;28;20185;-67
2021/09/13 02:49:04;;;;;;;0.80;0.80;;;24.10;59.40;;;;;;5106809;28;20189;-67
2021/09/13 02:51:33;;;;;;;0.90;0.90;;;24.00;59.30;;;;;;5108037;28;20273;-66
2021/09/13 02:54:04;;;;;;;1.23;0.80;;;24.10;59.30;;;;;;5097013;28;20607;-67
2021/09/13 02:56:33;;;;;;;0.93;0.90;;;24.10;59.30;;;;;;5102166;28;20213;-67
2021/09/13 02:59:04;;;;;;;0.80;0.80;;;24.00;59.30;;;;;;5095529;28;20227;-67
2021/09/13 03:01:34;;;;;;;1.10;1.00;;;24.00;59.30;;;;;;5102663;28;20221;-66
2021/09/13 03:04:06;;;;;;;1.03;1.00;;;24.00;59.30;;;;;;5090399;28;20283;-66
2021/09/13 03:06:36;;;;;;;1.07;0.97;;;24.00;59.20;;;;;;5105157;28;20203;-67
2021/09/13 03:09:06;;;;;;;1.37;1.07;;;24.00;59.20;;;;;;5109819;28;20621;-67
2021/09/13 03:11:50;;;;;;;1.17;0.70;;;24.00;59.20;;;;;;5091386;28;20220;-67
2021/09/13 03:14:21;;;;;;;2.07;0.90;;;24.00;59.20;;;;;;5109706;28;20215;-66
2021/09/13 03:16:51;;;;;;;1.13;0.90;;;24.00;59.30;;;;;;5109004;28;20196;-67
2021/09/13 03:19:20;;;;;;;0.70;0.70;;;24.00;59.20;;;;;;5105665;28;20840;-66
2021/09/13 03:21:52;;;;;;;1.10;1.00;;;24.00;59.20;;;;;;5085944;28;20268;-66
2021/09/13 03:24:21;;;;;;;0.97;0.90;;;24.00;59.20;;;;;;5111690;28;20295;-67
2021/09/13 03:26:53;;;;;;;0.70;0.70;;;24.00;59.20;;;;;;5102182;28;20204;-66
2021/09/13 03:29:26;;;;;;;1.10;1.00;;;24.00;59.20;;;;;;5105921;28;20212;-66
2021/09/13 03:31:57;;;;;;;1.10;0.83;;;24.00;59.20;;;;;;5099039;27;20192;-66
2021/09/13 03:34:28;;;;;;;0.87;0.87;;;24.00;59.20;;;;;;5108700;28;20208;-67
2021/09/13 03:37:02;;;;;;;0.70;0.70;;;24.00;59.20;;;;;;5095446;28;20259;-67
2021/09/13 03:39:32;;;;;;;2.73;1.10;;;24.00;59.20;;;;;;5107056;27;20231;-66
2021/09/13 03:42:04;;;;;;;0.80;0.80;;;23.90;59.10;;;;;;5093630;28;20228;-66
2021/09/13 03:44:35;;;;;;;0.80;0.80;;;23.90;59.10;;;;;;5091098;28;20192;-67
2021/09/13 03:47:08;;;;;;;0.90;0.70;;;23.90;59.10;;;;;;5102275;28;20200;-66
2021/09/13 03:49:38;;;;;;;0.73;0.73;;;23.90;59.00;;;;;;5088141;28;20188;-66
2021/09/13 03:52:08;;;;;;;0.90;0.90;;;23.90;59.00;;;;;;5108495;28;20549;-67
2021/09/13 03:54:40;;;;;;;0.77;0.70;;;23.90;59.00;;;;;;5083094;28;20244;-66
2021/09/13 03:57:11;;;;;;;0.87;0.87;;;23.90;59.00;;;;;;5102882;28;20197;-66
2021/09/13 03:59:40;;;;;;;0.73;0.70;;;23.90;59.00;;;;;;5109269;28;20236;-66
2021/09/13 04:02:11;;;;;;;0.70;0.70;;;23.90;59.00;;;;;;5112437;27;20200;-66
2021/09/13 04:04:47;;;;;;;1.17;1.10;;;23.90;59.00;;;;;;5097018;28;20205;-67
2021/09/13 04:07:26;;;;;;;0.90;0.70;;;23.90;59.00;;;;;;5109066;27;20202;-66
2021/09/13 04:13:12;;;;;;;0.90;0.90;;;23.90;59.00;;;;;;5018466;28;20236;-67
2021/09/13 04:15:43;;;;;;;1.40;0.80;;;23.90;59.00;;;;;;5036352;28;20218;-66
2021/09/13 04:18:14;;;;;;;1.23;0.80;;;23.90;59.00;;;;;;5056666;28;20206;-66
2021/09/13 04:20:46;;;;;;;0.80;0.80;;;23.90;59.00;;;;;;5054478;28;20579;-66
2021/09/13 04:23:20;;;;;;;0.87;0.80;;;23.90;59.00;;;;;;5038163;28;20207;-66
2021/09/13 04:25:52;;;;;;;0.83;0.83;;;23.90;59.00;;;;;;5043661;28;20652;-66
2021/09/13 04:28:23;;;;;;;0.90;0.90;;;23.80;58.90;;;;;;5095445;28;20216;-66
2021/09/13 04:31:09;;;;;;;1.00;1.00;;;23.90;58.90;;;;;;5110346;27;20205;-66
2021/09/13 04:33:40;;;;;;;0.90;0.80;;;23.80;58.90;;;;;;5114042;27;20211;-66
2021/09/13 04:36:12;;;;;;;1.10;1.00;;;23.80;58.90;;;;;;5107330;28;20196;-66
2021/09/13 04:38:42;;;;;;;0.70;0.70;;;23.80;58.90;;;;;;5111662;27;20208;-66
2021/09/13 04:41:10;;;;;;;1.00;1.00;;;23.80;58.80;;;;;;5083950;28;20227;-66
2021/09/13 04:43:42;;;;;;;0.90;0.90;;;23.80;58.90;;;;;;5082865;28;20208;-66
2021/09/13 04:46:12;;;;;;;0.90;0.90;;;23.80;58.80;;;;;;5099986;27;20669;-66
2021/09/13 04:48:40;;;;;;;1.10;1.00;;;23.80;58.80;;;;;;5066101;28;20203;-66
2021/09/13 04:51:11;;;;;;;1.47;0.90;;;23.80;58.80;;;;;;5085181;28;20201;-66
2021/09/13 04:53:41;;;;;;;1.20;1.10;;;23.80;58.80;;;;;;5101742;28;20240;-66
2021/09/13 04:56:14;;;;;;;0.90;0.80;;;23.80;58.80;;;;;;5076507;28;20223;-66
2021/09/13 04:58:46;;;;;;;0.77;0.77;;;23.80;58.80;;;;;;5103090;28;20215;-67
2021/09/13 05:01:16;;;;;;;0.90;0.90;;;23.80;58.70;;;;;;5115514;28;20212;-64
2021/09/13 05:03:53;;;;;;;0.70;0.70;;;23.80;58.70;;;;;;5107878;28;20700;-65
2021/09/13 05:06:22;;;;;;;0.83;0.83;;;23.80;58.70;;;;;;5082980;28;20285;-67
2021/09/13 05:08:53;;;;;;;1.40;0.90;;;23.70;58.70;;;;;;5088051;28;20241;-66
2021/09/13 05:11:20;;;;;;;1.00;1.00;;;23.80;58.70;;;;;;5100427;28;20209;-67
2021/09/13 05:13:59;;;;;;;0.80;0.80;;;23.80;58.80;;;;;;5088122;28;20263;-67
2021/09/13 05:16:32;;;;;;;1.23;1.00;;;23.70;58.70;;;;;;5095391;28;20281;-64
2021/09/13 05:19:07;;;;;;;1.10;1.00;;;23.70;58.60;;;;;;5080965;28;20580;-64
2021/09/13 05:21:40;;;;;;;0.90;0.90;;;23.80;58.60;;;;;;5106547;28;20257;-64
2021/09/13 05:24:11;;;;;;;4.97;2.10;;;23.70;58.60;;;;;;5090630;28;20192;-64
2021/09/13 05:26:43;;;;;;;7.00;3.40;;;23.80;58.70;;;;;;5108711;28;20204;-64
2021/09/13 05:29:13;;;;;;;22.57;6.37;;;23.70;58.70;;;;;;5081655;28;20208;-63
2021/09/13 05:31:42;;;;;;;25.00;8.60;;;23.70;59.00;;;;;;5088154;28;20628;-65
2021/09/13 05:34:15;;;;;;;31.20;8.97;;;23.70;59.10;;;;;;5107513;28;20261;-65
2021/09/13 05:36:46;;;;;;;31.97;9.13;;;23.70;59.10;;;;;;5104691;28;20281;-67
2021/09/13 05:39:18;;;;;;;28.50;9.73;;;23.70;59.10;;;;;;5096529;28;20204;-67
2021/09/13 05:41:48;;;;;;;31.50;9.80;;;23.70;59.10;;;;;;5107104;28;20208;-64
2021/09/13 05:44:20;;;;;;;27.77;9.77;;;23.70;59.00;;;;;;5081634;28;20275;-63
2021/09/13 05:46:51;;;;;;;29.70;10.33;;;23.70;59.00;;;;;;5088273;28;20622;-64
2021/09/13 05:49:22;;;;;;;24.33;10.13;;;23.70;58.80;;;;;;5097457;28;20199;-64
2021/09/13 05:51:52;;;;;;;30.90;9.87;;;23.70;58.60;;;;;;5103569;28;20192;-68
2021/09/13 05:54:26;;;;;;;21.80;8.53;;;23.70;58.30;;;;;;5100816;28;20696;-68
2021/09/13 05:56:58;;;;;;;18.70;7.57;;;23.70;58.00;;;;;;5088365;28;20199;-68
2021/09/13 05:59:30;;;;;;;20.37;7.33;;;23.70;57.60;;;;;;5089601;28;20197;-68
2021/09/13 06:02:00;;;;;;;15.43;6.87;;;23.70;57.30;;;;;;5106212;28;20196;-68
2021/09/13 06:04:35;;;;;;;14.90;6.03;;;23.70;57.10;;;;;;5104366;28;20192;-68
2021/09/13 06:07:08;;;;;;;15.80;5.43;;;23.60;56.90;;;;;;5104777;28;20188;-67
2021/09/13 06:09:38;;;;;;;13.00;5.10;;;23.60;56.70;;;;;;5105397;28;20650;-66
2021/09/13 06:12:14;;;;;;;11.53;4.47;;;23.60;56.80;;;;;;5095758;28;20200;-66
2021/09/13 06:14:43;;;;;;;10.00;5.10;;;23.60;56.90;;;;;;5087908;28;20284;-65
2021/09/13 06:17:15;;;;;;;10.43;4.60;;;23.60;57.10;;;;;;5063633;28;20254;-66
2021/09/13 06:19:47;;;;;;;11.00;4.87;;;23.60;57.10;;;;;;5104534;28;20609;-65
2021/09/13 06:22:18;;;;;;;11.50;4.17;;;23.60;57.50;;;;;;5110121;28;20239;-65
2021/09/13 06:24:50;;;;;;;9.50;3.90;;;23.60;57.70;;;;;;5080983;28;20212;-65
2021/09/13 06:27:18;;;;;;;8.93;3.13;;;23.60;58.20;;;;;;5107087;28;20211;-68
2021/09/13 06:29:50;;;;;;;6.70;3.20;;;23.70;58.40;;;;;;5100193;28;20204;-66
2021/09/13 06:32:21;;;;;;;4.37;3.27;;;23.70;58.10;;;;;;5097969;28;20216;-66
2021/09/13 06:34:50;;;;;;;4.23;2.70;;;23.70;57.40;;;;;;5101000;28;20288;-66
2021/09/13 06:37:22;;;;;;;3.47;2.77;;;23.70;57.00;;;;;;5078449;28;20797;-66
2021/09/13 06:39:58;;;;;;;3.27;2.70;;;23.80;56.40;;;;;;5101613;28;20226;-65
2021/09/13 06:42:30;;;;;;;7.17;2.50;;;23.80;56.30;;;;;;5097043;28;20196;-67
2021/09/13 06:45:08;;;;;;;3.30;2.47;;;23.80;55.90;;;;;;5101999;28;20227;-67
2021/09/13 06:47:44;;;;;;;3.00;2.67;;;23.80;55.70;;;;;;5108632;28;20222;-67
2021/09/13 06:50:27;;;;;;;2.43;2.23;;;23.90;55.50;;;;;;5102112;28;20197;-64
2021/09/13 06:53:00;;;;;;;2.80;2.60;;;23.90;55.40;;;;;;5065242;28;20207;-64
2021/09/13 06:55:32;;;;;;;3.63;2.60;;;23.90;54.20;;;;;;5099034;28;20217;-65
2021/09/13 06:58:15;;;;;;;2.57;2.30;;;23.90;54.20;;;;;;5087353;28;20200;-67
2021/09/13 07:00:46;;;;;;;2.77;2.40;;;23.90;55.00;;;;;;5099270;28;20201;-65
2021/09/13 07:03:19;;;;;;;2.57;1.73;;;23.90;55.40;;;;;;5085399;28;20193;-66
2021/09/13 07:05:51;;;;;;;2.87;2.00;;;24.00;55.60;;;;;;5091075;28;20203;-66
2021/09/13 07:08:22;;;;;;;2.80;2.00;;;24.00;55.60;;;;;;5069981;28;20205;-67
2021/09/13 07:10:55;;;;;;;1.90;1.80;;;24.00;55.50;;;;;;5110985;28;20206;-67
2021/09/13 07:13:26;;;;;;;2.37;2.17;;;24.10;55.60;;;;;;5108714;28;20196;-67
2021/09/13 07:16:07;;;;;;;2.53;1.90;;;24.10;55.50;;;;;;5085078;28;20669;-66
2021/09/13 07:18:38;;;;;;;3.77;2.17;;;24.10;55.50;;;;;;5105416;28;20237;-66
2021/09/13 07:21:08;;;;;;;2.20;2.03;;;24.10;55.50;;;;;;5099241;28;20220;-66
2021/09/13 07:23:38;;;;;;;3.13;2.30;;;24.20;55.50;;;;;;5107993;28;20197;-66
2021/09/13 07:26:10;;;;;;;3.33;2.30;;;24.20;55.60;;;;;;5109995;27;20203;-65
2021/09/13 07:28:42;;;;;;;4.87;2.50;;;24.20;55.70;;;;;;5111448;28;20476;-65
2021/09/13 07:31:10;;;;;;;3.50;2.47;;;24.30;55.70;;;;;;5092314;28;20204;-66
2021/09/13 07:33:54;;;;;;;8.87;2.50;;;24.30;55.60;;;;;;5105704;28;20221;-67
2021/09/13 07:36:25;;;;;;;5.90;2.53;;;24.40;55.60;;;;;;5102711;28;20220;-66
2021/09/13 07:38:57;;;;;;;4.97;2.60;;;24.40;55.60;;;;;;5108189;28;20625;-66
2021/09/13 07:41:28;;;;;;;2.63;2.10;;;24.40;55.50;;;;;;5113135;28;20224;-67
2021/09/13 07:44:03;;;;;;;2.97;2.20;;;24.40;55.40;;;;;;5099183;28;20220;-67
2021/09/13 07:46:32;;;;;;;3.43;2.53;;;24.40;55.40;;;;;;5107689;28;20651;-66
2021/09/13 07:49:03;;;;;;;2.93;2.57;;;24.40;56.00;;;;;;5125978;27;20202;-66
2021/09/13 07:51:38;;;;;;;4.77;2.67;;;24.50;55.40;;;;;;5112202;27;20184;-67
2021/09/13 07:54:10;;;;;;;4.23;2.60;;;24.50;55.30;;;;;;5068500;28;20302;-66
2021/09/13 07:56:42;;;;;;;3.30;2.60;;;24.50;55.10;;;;;;5108666;28;20196;-66
2021/09/13 07:59:14;;;;;;;2.90;2.30;;;24.60;55.20;;;;;;5093292;28;20196;-65
2021/09/13 08:01:42;;;;;;;3.57;2.23;;;24.50;55.20;;;;;;5091504;28;20216;-65
2021/09/13 08:04:23;;;;;;;3.50;2.80;;;24.50;55.10;;;;;;5078193;28;20192;-67
2021/09/13 08:06:57;;;;;;;3.27;2.63;;;24.50;53.90;;;;;;5108270;27;20193;-65
2021/09/13 08:09:39;;;;;;;4.60;2.43;;;24.50;54.60;;;;;;5101521;27;20216;-65
2021/09/13 08:12:08;;;;;;;4.10;2.57;;;24.50;56.40;;;;;;5107451;28;20673;-66
2021/09/13 08:14:37;;;;;;;4.87;2.50;;;24.40;56.90;;;;;;5081740;28;20604;-64
2021/09/13 08:17:09;;;;;;;3.73;2.10;;;24.40;58.00;;;;;;5070325;28;20197;-64
2021/09/13 08:19:41;;;;;;;2.73;2.10;;;24.40;57.60;;;;;;5108623;28;20208;-65
2021/09/13 08:22:13;;;;;;;3.57;2.10;;;24.30;57.70;;;;;;5100141;28;20231;-67
2021/09/13 08:24:51;;;;;;;3.43;2.23;;;24.30;57.90;;;;;;5095830;28;20287;-66
2021/09/13 08:27:22;;;;;;;2.83;1.90;;;24.30;58.40;;;;;;5085681;28;20258;-65
2021/09/13 08:29:53;;;;;;;2.23;1.80;;;24.40;58.60;;;;;;5077786;28;20746;-65
2021/09/13 08:32:23;;;;;;;2.13;1.73;;;24.50;58.80;;;;;;5105238;28;20188;-65
2021/09/13 08:34:54;;;;;;;2.07;1.40;;;24.50;58.80;;;;;;5109445;28;20223;-64
2021/09/13 08:37:22;;;;;;;3.23;1.70;;;24.50;58.90;;;;;;5099938;28;20201;-64
2021/09/13 08:39:52;;;;;;;2.33;1.70;;;24.50;58.90;;;;;;5106380;28;20211;-66
2021/09/13 08:42:23;;;;;;;3.97;2.10;;;24.60;59.00;;;;;;5102151;28;20220;-65
2021/09/13 08:44:56;;;;;;;2.83;1.40;;;24.60;59.10;;;;;;5104985;27;20754;-65
2021/09/13 08:47:48;;;;;;;1.87;1.40;;;24.60;58.90;;;;;;5080408;28;20209;-67
2021/09/13 08:50:34;;;;;;;1.80;1.50;;;24.70;59.00;;;;;;5107769;28;20211;-66
2021/09/13 08:53:14;;;;;;;2.57;1.67;;;24.70;59.00;;;;;;5078406;28;20619;-67
2021/09/13 08:55:49;;;;;;;3.07;1.80;;;24.70;59.10;;;;;;5104890;28;20591;-68
2021/09/13 08:58:27;;;;;;;3.87;1.27;;;24.70;59.10;;;;;;5106566;28;20227;-69
2021/09/13 09:00:55;;;;;;;2.37;1.50;;;24.70;59.00;;;;;;5107698;28;20613;-68
2021/09/13 09:03:28;;;;;;;2.73;1.50;;;24.70;59.00;;;;;;5112575;28;20265;-66
2021/09/13 09:05:58;;;;;;;2.67;1.10;;;24.70;59.10;;;;;;5059933;28;20560;-66
2021/09/13 09:08:38;;;;;;;3.50;1.40;;;24.80;59.00;;;;;;5107343;28;20237;-66
2021/09/13 09:11:10;;;;;;;1.70;1.30;;;24.80;59.10;;;;;;5103917;28;20242;-66
2021/09/13 09:13:41;;;;;;;4.33;1.50;;;24.80;59.30;;;;;;5107814;28;20208;-66
2021/09/13 09:16:15;;;;;;;2.07;1.40;;;24.70;59.20;;;;;;5091649;28;20199;-66
2021/09/13 09:18:49;;;;;;;2.07;1.20;;;24.70;59.60;;;;;;5106596;28;20204;-66
2021/09/13 09:21:33;;;;;;;1.73;1.30;;;24.60;59.50;;;;;;5090647;28;20334;-65
2021/09/13 09:24:07;;;;;;;4.37;1.37;;;24.60;58.70;;;;;;5087077;28;20428;-68
2021/09/13 09:26:37;;;;;;;2.97;1.43;;;24.50;58.60;;;;;;5109743;28;20229;-66
2021/09/13 09:29:25;;;;;;;1.80;1.23;;;24.50;58.70;;;;;;5090666;28;20832;-67
2021/09/13 09:31:57;;;;;;;2.70;1.57;;;24.60;58.60;;;;;;5098294;28;20601;-67
2021/09/13 09:34:33;;;;;;;1.73;1.27;;;24.50;58.50;;;;;;5087067;28;20282;-67
2021/09/13 09:37:12;;;;;;;2.37;1.60;;;24.50;58.60;;;;;;5094026;28;20865;-67
2021/09/13 09:39:56;;;;;;;2.87;1.40;;;24.50;59.10;;;;;;5104379;28;20206;-68
2021/09/13 09:42:46;;;;;;;1.40;1.30;;;24.50;58.90;;;;;;5075870;28;20717;-68
2021/09/13 09:45:22;;;;;;;2.97;1.30;;;24.50;58.80;;;;;;5077299;28;20608;-68
2021/09/13 09:48:10;;;;;;;1.83;1.40;;;24.60;58.70;;;;;;5090347;28;20227;-67
2021/09/13 09:50:39;;;;;;;4.17;1.30;;;24.60;58.80;;;;;;5109284;28;20204;-65
2021/09/13 09:53:21;;;;;;;2.70;1.10;;;24.50;58.40;;;;;;5106554;28;20704;-63
2021/09/13 09:55:53;;;;;;;1.90;0.83;;;24.50;58.90;;;;;;5077429;28;20254;-65
2021/09/13 09:58:22;;;;;;;1.67;1.10;;;24.50;59.20;;;;;;5085753;28;20289;-66
2021/09/13 10:00:53;;;;;;;2.13;1.13;;;24.50;59.50;;;;;;5092730;28;20213;-66
2021/09/13 10:03:33;;;;;;;5.40;1.33;;;24.50;60.00;;;;;;5104622;28;20212;-67
2021/09/13 10:06:06;;;;;;;2.33;1.30;;;24.50;59.70;;;;;;5111205;28;20200;-68
2021/09/13 10:08:37;;;;;;;1.63;1.00;;;24.50;59.10;;;;;;5100926;28;20195;-68
2021/09/13 10:11:07;;;;;;;1.60;1.40;;;24.50;59.10;;;;;;5101738;28;20204;-68
2021/09/13 10:13:37;;;;;;;1.30;0.90;;;24.40;59.60;;;;;;5105205;28;20193;-67
2021/09/13 10:16:08;;;;;;;2.30;1.30;;;24.50;60.40;;;;;;5090615;28;20192;-68
2021/09/13 10:18:46;;;;;;;2.00;1.30;;;24.40;59.30;;;;;;5081143;28;20199;-68
2021/09/13 10:21:15;;;;;;;2.07;1.17;;;24.40;59.10;;;;;;5109578;28;20332;-68
2021/09/13 10:23:48;;;;;;;2.17;1.20;;;24.40;58.70;;;;;;5091266;28;20191;-68
2021/09/13 10:26:19;;;;;;;1.50;1.40;;;24.40;58.70;;;;;;5112372;28;20207;-67
2021/09/13 10:29:08;;;;;;;2.57;1.20;;;24.40;58.60;;;;;;5102370;27;20193;-66
2021/09/13 10:31:50;;;;;;;4.13;1.60;;;24.40;59.10;;;;;;5099816;28;20205;-66
2021/09/13 10:34:30;;;;;;;2.23;1.33;;;24.40;58.80;;;;;;5112027;28;20200;-66
2021/09/13 10:37:21;;;;;;;1.73;1.20;;;24.40;58.90;;;;;;5111271;28;20237;-65
2021/09/13 10:40:13;;;;;;;6.47;1.20;;;24.50;59.40;;;;;;5080885;28;20205;-66
2021/09/13 10:42:58;;;;;;;1.37;1.10;;;24.60;59.80;;;;;;5111394;28;20284;-68
2021/09/13 10:45:42;;;;;;;3.37;1.50;;;24.60;60.10;;;;;;5106993;28;20221;-69
2021/09/13 10:48:23;;;;;;;3.23;1.17;;;24.70;60.10;;;;;;5111552;28;20196;-67
2021/09/13 10:50:57;;;;;;;4.03;1.10;;;24.70;60.10;;;;;;5092277;28;20780;-67
2021/09/13 10:53:32;;;;;;;4.60;1.27;;;24.70;59.80;;;;;;5106880;28;20227;-68
2021/09/13 10:56:06;;;;;;;2.10;1.10;;;24.80;60.00;;;;;;5111080;28;20295;-66
2021/09/13 10:58:46;;;;;;;7.73;1.17;;;24.80;60.00;;;;;;5095598;28;20245;-65
2021/09/13 11:01:25;;;;;;;2.10;1.13;;;24.90;60.40;;;;;;5106772;28;20792;-65
2021/09/13 11:04:04;;;;;;;2.20;1.10;;;24.90;60.00;;;;;;5078751;28;20228;-65
2021/09/13 11:06:40;;;;;;;2.67;1.20;;;24.90;59.80;;;;;;5090020;28;20558;-67
2021/09/13 11:09:37;;;;;;;2.30;1.33;;;25.00;59.80;;;;;;5104604;28;20192;-67
2021/09/13 11:12:10;;;;;;;2.80;1.20;;;25.00;59.80;;;;;;5094041;28;20336;-67
2021/09/13 11:14:50;;;;;;;3.37;1.20;;;25.00;59.70;;;;;;5110776;28;20207;-68
2021/09/13 11:17:22;;;;;;;3.00;1.20;;;25.00;59.70;;;;;;5062511;28;20271;-68
2021/09/13 11:19:52;;;;;;;3.47;1.00;;;25.10;59.70;;;;;;5104537;28;20200;-67
2021/09/13 11:22:22;;;;;;;1.17;1.07;;;25.10;59.60;;;;;;5094537;28;20224;-66
2021/09/13 11:24:52;;;;;;;2.00;1.00;;;25.20;59.60;;;;;;5107675;28;20211;-66
2021/09/13 11:27:22;;;;;;;2.60;1.10;;;25.20;59.30;;;;;;5092429;28;20546;-66
2021/09/13 11:29:50;;;;;;;2.43;1.20;;;25.20;59.40;;;;;;5108759;28;20205;-65
2021/09/13 11:32:23;;;;;;;1.20;1.10;;;25.30;59.60;;;;;;5109065;28;20625;-66
2021/09/13 11:34:54;;;;;;;1.47;1.10;;;25.30;59.30;;;;;;5107105;28;20212;-65
2021/09/13 11:37:26;;;;;;;4.40;1.30;;;25.40;59.50;;;;;;5112717;28;20472;-66
2021/09/13 11:40:28;;;;;;;1.50;1.10;;;25.40;59.60;;;;;;5094859;28;20200;-66
2021/09/13 11:43:09;;;;;;;3.30;1.30;;;25.40;59.20;;;;;;5110436;28;20211;-66
2021/09/13 11:45:40;;;;;;;2.07;1.17;;;25.30;58.40;;;;;;5109541;28;20189;-66
2021/09/13 11:48:11;;;;;;;3.87;1.43;;;25.20;57.70;;;;;;5109718;28;20197;-66
2021/09/13 11:50:42;;;;;;;1.93;1.73;;;25.20;57.50;;;;;;5106943;28;20200;-65
2021/09/13 11:53:14;;;;;;;2.70;1.20;;;25.20;57.70;;;;;;5107278;28;20236;-65
2021/09/13 11:55:44;;;;;;;1.87;1.27;;;25.10;57.20;;;;;;5107393;28;20187;-66
2021/09/13 11:58:15;;;;;;;8.17;2.07;;;25.10;57.40;;;;;;5090542;28;20258;-69
2021/09/13 12:00:47;;;;;;;2.70;1.30;;;25.10;58.60;;;;;;5103285;28;20193;-66
2021/09/13 12:03:32;;;;;;;2.73;1.40;;;25.20;59.20;;;;;;5105326;28;20295;-67
2021/09/13 12:06:18;;;;;;;2.50;1.30;;;25.20;60.10;;;;;;5096240;28;20223;-68
2021/09/13 12:08:48;;;;;;;3.90;1.10;;;25.10;58.30;;;;;;5108898;28;20204;-69
2021/09/13 12:11:20;;;;;;;3.37;1.20;;;25.20;58.50;;;;;;5094010;28;20200;-68
2021/09/13 12:13:49;;;;;;;1.90;1.30;;;25.10;58.20;;;;;;5109412;28;20220;-67
2021/09/13 12:16:25;;;;;;;6.23;1.40;;;25.20;59.30;;;;;;5097869;28;20785;-67
2021/09/13 12:18:56;;;;;;;2.00;1.37;;;25.20;59.00;;;;;;5103160;28;20200;-66
2021/09/13 12:21:27;;;;;;;2.80;1.83;;;25.20;60.10;;;;;;5106789;28;20732;-65
2021/09/13 12:24:01;;;;;;;2.80;1.40;;;25.20;57.90;;;;;;5107873;28;20257;-66
2021/09/13 12:26:33;;;;;;;2.97;1.40;;;25.20;59.50;;;;;;5109995;27;20215;-66
2021/09/13 12:29:15;;;;;;;1.63;1.20;;;25.20;58.40;;;;;;5107875;28;20210;-66
2021/09/13 12:31:49;;;;;;;3.37;1.70;;;25.20;58.40;;;;;;5106857;28;20520;-66
2021/09/13 12:34:17;;;;;;;1.30;1.20;;;25.20;59.00;;;;;;5089393;28;20203;-66
2021/09/13 12:37:02;;;;;;;1.90;1.30;;;25.20;60.10;;;;;;5087056;28;20211;-65
2021/09/13 12:39:35;;;;;;;3.37;1.53;;;25.20;59.90;;;;;;5095976;28;20706;-66
2021/09/13 12:42:26;;;;;;;2.70;1.90;;;25.20;58.80;;;;;;5082608;28;20232;-66
2021/09/13 12:45:00;;;;;;;2.17;1.63;;;25.20;58.70;;;;;;5106932;28;20192;-66
2021/09/13 12:47:30;;;;;;;1.87;1.50;;;25.20;58.70;;;;;;5088956;28;20268;-67
2021/09/13 12:50:01;;;;;;;1.60;1.43;;;25.20;59.20;;;;;;5083161;28;20182;-67
2021/09/13 12:52:48;;;;;;;3.00;1.50;;;25.20;59.40;;;;;;5072639;28;20305;-66
2021/09/13 12:55:31;;;;;;;2.50;1.67;;;25.20;58.20;;;;;;5109545;28;20283;-66
2021/09/13 12:58:28;;;;;;;2.93;1.67;;;25.20;58.20;;;;;;5081558;28;20196;-66
2021/09/13 13:01:03;;;;;;;4.83;1.90;;;25.20;57.10;;;;;;5102113;28;20207;-65
2021/09/13 13:03:36;;;;;;;2.13;1.80;;;25.20;58.90;;;;;;5108329;28;20235;-65
2021/09/13 13:06:14;;;;;;;1.70;1.53;;;25.20;58.90;;;;;;5107816;28;20208;-66
2021/09/13 13:08:45;;;;;;;1.60;1.50;;;25.30;59.30;;;;;;5105632;28;20502;-66
2021/09/13 13:11:25;;;;;;;3.13;1.00;;;25.30;58.50;;;;;;5106919;28;20289;-68
2021/09/13 13:13:57;;;;;;;2.77;1.67;;;25.30;58.30;;;;;;5106863;28;20197;-67
2021/09/13 13:16:42;;;;;;;1.57;1.47;;;25.30;59.30;;;;;;5104332;28;20710;-65
2021/09/13 13:19:15;;;;;;;1.73;1.10;;;25.30;59.30;;;;;;5075064;28;20232;-66
2021/09/13 13:21:47;;;;;;;1.70;1.33;;;25.40;58.10;;;;;;5104724;28;20220;-67